sensor_id;sensor_type;location;lat;lon;timestamp;pressure;altitude;pressure_sealevel;temperature;humidity
72921;BME280;61064;51.654;5.476;2023-07-13T00:02:25;101406.94;;;16.64;65.90
72921;BME280;61064;51.654;5.476;2023-07-13T00:04:52;101418.59;;;16.61;65.95
72921;BME280;61064;51.654;5.476;2023-07-13T00:07:17;101422.19;;;16.57;66.36
72921;BME280;61064;51.654;5.476;2023-07-13T00:09:46;101424.88;;;16.57;66.36
72921;BME280;61064;51.654;5.476;2023-07-13T00:12:24;101437.44;;;16.54;66.62
72921;BME280;61064;51.654;5.476;2023-07-13T00:14:50;101425.81;;;16.50;66.51
72921;BME280;61064;51.654;5.476;2023-07-13T00:17:16;101433.88;;;16.53;66.65
72921;BME280;61064;51.654;5.476;2023-07-13T00:19:42;101422.25;;;16.50;66.73
72921;BME280;61064;51.654;5.476;2023-07-13T00:22:07;101426.75;;;16.49;66.96
72921;BME280;61064;51.654;5.476;2023-07-13T00:24:32;101418.69;;;16.48;66.78
72921;BME280;61064;51.654;5.476;2023-07-13T00:26:58;101418.75;;;16.43;66.81
72921;BME280;61064;51.654;5.476;2023-07-13T00:29:25;101410.69;;;16.39;67.26
72921;BME280;61064;51.654;5.476;2023-07-13T00:31:51;101410.72;;;16.36;67.43
72921;BME280;61064;51.654;5.476;2023-07-13T00:34:16;101425.06;;;16.38;66.97
72921;BME280;61064;51.654;5.476;2023-07-13T00:36:41;101424.16;;;16.34;67.36
72921;BME280;61064;51.654;5.476;2023-07-13T00:39:07;101421.56;;;16.27;67.46
72921;BME280;61064;51.654;5.476;2023-07-13T00:41:32;101426.94;;;16.22;67.52
72921;BME280;61064;51.654;5.476;2023-07-13T00:43:57;101426.13;;;16.15;67.93
72921;BME280;61064;51.654;5.476;2023-07-13T00:46:25;101430.59;;;16.15;68.13
72921;BME280;61064;51.654;5.476;2023-07-13T00:48:51;101420.78;;;16.08;68.21
72921;BME280;61064;51.654;5.476;2023-07-13T00:51:22;101430.63;;;16.07;68.39
72921;BME280;61064;51.654;5.476;2023-07-13T00:53:50;101426.19;;;16.02;68.57
72921;BME280;61064;51.654;5.476;2023-07-13T00:56:16;101434.25;;;16.02;68.53
72921;BME280;61064;51.654;5.476;2023-07-13T00:58:42;101438.72;;;16.00;68.81
72921;BME280;61064;51.654;5.476;2023-07-13T01:01:07;101442.34;;;15.97;68.90
72921;BME280;61064;51.654;5.476;2023-07-13T01:03:34;101436.06;;;15.97;69.11
72921;BME280;61064;51.654;5.476;2023-07-13T01:06:00;101428.97;;;15.93;69.11
72921;BME280;61064;51.654;5.476;2023-07-13T01:08:25;101433.44;;;15.94;69.10
72921;BME280;61064;51.654;5.476;2023-07-13T01:10:55;101436.13;;;15.94;69.26
72921;BME280;61064;51.654;5.476;2023-07-13T01:13:21;101425.38;;;15.92;69.30
72921;BME280;61064;51.654;5.476;2023-07-13T01:15:51;101418.25;;;15.87;69.61
72921;BME280;61064;51.654;5.476;2023-07-13T01:18:21;101432.56;;;15.87;69.71
72921;BME280;61064;51.654;5.476;2023-07-13T01:21:00;101429.88;;;15.84;69.85
72921;BME280;61064;51.654;5.476;2023-07-13T01:23:28;101436.19;;;15.82;69.76
72921;BME280;61064;51.654;5.476;2023-07-13T01:25:54;101435.28;;;15.78;69.92
72921;BME280;61064;51.654;5.476;2023-07-13T01:28:21;101442.44;;;15.79;70.02
72921;BME280;61064;51.654;5.476;2023-07-13T01:30:46;101442.44;;;15.77;69.96
72921;BME280;61064;51.654;5.476;2023-07-13T01:33:14;101443.38;;;15.76;70.36
72921;BME280;61064;51.654;5.476;2023-07-13T01:35:40;101445.16;;;15.73;70.47
72921;BME280;61064;51.654;5.476;2023-07-13T01:38:06;101443.34;;;15.72;70.50
72921;BME280;61064;51.654;5.476;2023-07-13T01:40:33;101453.22;;;15.68;70.62
72921;BME280;61064;51.654;5.476;2023-07-13T01:42:59;101443.41;;;15.66;70.62
72921;BME280;61064;51.654;5.476;2023-07-13T01:45:24;101438.06;;;15.63;70.79
72921;BME280;61064;51.654;5.476;2023-07-13T01:47:49;101444.31;;;15.63;70.87
72921;BME280;61064;51.654;5.476;2023-07-13T01:50:15;101454.16;;;15.63;70.95
72921;BME280;61064;51.654;5.476;2023-07-13T01:52:40;101449.69;;;15.59;71.09
72921;BME280;61064;51.654;5.476;2023-07-13T01:55:06;101447.03;;;15.59;70.96
72921;BME280;61064;51.654;5.476;2023-07-13T01:57:32;101446.16;;;15.54;71.51
72921;BME280;61064;51.654;5.476;2023-07-13T01:59:57;101435.41;;;15.52;71.36
72921;BME280;61064;51.654;5.476;2023-07-13T02:02:22;101448.84;;;15.52;71.49
72921;BME280;61064;51.654;5.476;2023-07-13T02:04:48;101435.41;;;15.46;71.61
72921;BME280;61064;51.654;5.476;2023-07-13T02:07:13;101438.13;;;15.43;71.51
72921;BME280;61064;51.654;5.476;2023-07-13T02:09:40;101438.13;;;15.42;71.67
72921;BME280;61064;51.654;5.476;2023-07-13T02:12:07;101449.72;;;15.40;71.98
72921;BME280;61064;51.654;5.476;2023-07-13T02:14:33;101454.19;;;15.38;72.17
72921;BME280;61064;51.654;5.476;2023-07-13T02:16:58;101454.22;;;15.35;72.25
72921;BME280;61064;51.654;5.476;2023-07-13T02:19:24;101449.75;;;15.33;72.39
72921;BME280;61064;51.654;5.476;2023-07-13T02:21:50;101455.13;;;15.33;72.46
72921;BME280;61064;51.654;5.476;2023-07-13T02:24:16;101462.25;;;15.32;72.70
72921;BME280;61064;51.654;5.476;2023-07-13T02:26:43;101453.34;;;15.29;72.68
72921;BME280;61064;51.654;5.476;2023-07-13T02:29:09;101457.81;;;15.28;72.83
72921;BME280;61064;51.654;5.476;2023-07-13T02:31:35;101454.28;;;15.26;73.02
72921;BME280;61064;51.654;5.476;2023-07-13T02:34:02;101459.59;;;15.28;72.74
72921;BME280;61064;51.654;5.476;2023-07-13T02:36:28;101452.47;;;15.25;73.10
72921;BME280;61064;51.654;5.476;2023-07-13T02:38:53;101448.00;;;15.26;73.20
72921;BME280;61064;51.654;5.476;2023-07-13T02:41:18;101448.03;;;15.20;73.14
72921;BME280;61064;51.654;5.476;2023-07-13T02:43:44;101456.94;;;15.25;73.42
72921;BME280;61064;51.654;5.476;2023-07-13T02:46:10;101458.72;;;15.23;73.41
72921;BME280;61064;51.654;5.476;2023-07-13T02:48:38;101456.06;;;15.18;73.80
72921;BME280;61064;51.654;5.476;2023-07-13T02:51:04;101458.75;;;15.18;73.87
72921;BME280;61064;51.654;5.476;2023-07-13T02:53:30;101462.31;;;15.20;73.90
72921;BME280;61064;51.654;5.476;2023-07-13T02:55:56;101462.31;;;15.19;73.94
72921;BME280;61064;51.654;5.476;2023-07-13T02:58:21;101460.56;;;15.15;74.00
72921;BME280;61064;51.654;5.476;2023-07-13T03:00:47;101461.44;;;15.14;74.13
72921;BME280;61064;51.654;5.476;2023-07-13T03:03:14;101467.66;;;15.16;74.29
72921;BME280;61064;51.654;5.476;2023-07-13T03:05:42;101468.59;;;15.15;74.51
72921;BME280;61064;51.654;5.476;2023-07-13T03:08:09;101457.88;;;15.13;74.68
72921;BME280;61064;51.654;5.476;2023-07-13T03:10:35;101461.44;;;15.12;74.87
72921;BME280;61064;51.654;5.476;2023-07-13T03:13:00;101465.00;;;15.11;74.82
72921;BME280;61064;51.654;5.476;2023-07-13T03:15:26;101459.66;;;15.13;74.87
72921;BME280;61064;51.654;5.476;2023-07-13T03:17:52;101462.34;;;15.10;74.96
72921;BME280;61064;51.654;5.476;2023-07-13T03:20:18;101462.34;;;15.07;75.03
72921;BME280;61064;51.654;5.476;2023-07-13T03:22:43;101468.59;;;15.07;75.32
72921;BME280;61064;51.654;5.476;2023-07-13T03:25:09;101474.84;;;15.08;75.39
72921;BME280;61064;51.654;5.476;2023-07-13T03:27:34;101464.16;;;15.03;75.43
72921;BME280;61064;51.654;5.476;2023-07-13T03:29:59;101471.28;;;14.99;75.47
72921;BME280;61064;51.654;5.476;2023-07-13T03:32:25;101473.06;;;15.01;75.61
72921;BME280;61064;51.654;5.476;2023-07-13T03:34:51;101475.75;;;15.02;75.65
72921;BME280;61064;51.654;5.476;2023-07-13T03:37:16;101482.91;;;15.00;75.84
72921;BME280;61064;51.654;5.476;2023-07-13T03:39:42;101482.03;;;14.98;75.88
72921;BME280;61064;51.654;5.476;2023-07-13T03:42:07;101481.13;;;14.90;75.85
72921;BME280;61064;51.654;5.476;2023-07-13T03:44:33;101485.59;;;14.95;76.07
72921;BME280;61064;51.654;5.476;2023-07-13T03:46:58;101487.38;;;14.92;76.22
72921;BME280;61064;51.654;5.476;2023-07-13T03:49:24;101490.06;;;14.92;76.20
72921;BME280;61064;51.654;5.476;2023-07-13T03:51:49;101492.75;;;14.90;76.36
72921;BME280;61064;51.654;5.476;2023-07-13T03:54:14;101490.94;;;14.83;76.49
72921;BME280;61064;51.654;5.476;2023-07-13T03:56:40;101490.06;;;14.83;76.56
72921;BME280;61064;51.654;5.476;2023-07-13T03:59:08;101489.16;;;14.82;76.92
72921;BME280;61064;51.654;5.476;2023-07-13T04:01:34;101495.41;;;14.78;76.92
72921;BME280;61064;51.654;5.476;2023-07-13T04:03:59;101497.19;;;14.82;76.89
72921;BME280;61064;51.654;5.476;2023-07-13T04:06:29;101498.09;;;14.78;77.03
72921;BME280;61064;51.654;5.476;2023-07-13T04:08:57;101497.19;;;14.82;77.26
72921;BME280;61064;51.654;5.476;2023-07-13T04:11:25;101502.56;;;14.79;77.35
72921;BME280;61064;51.654;5.476;2023-07-13T04:13:51;101504.34;;;14.77;77.44
72921;BME280;61064;51.654;5.476;2023-07-13T04:16:17;101502.59;;;14.76;77.61
72921;BME280;61064;51.654;5.476;2023-07-13T04:18:44;101516.88;;;14.81;77.55
72921;BME280;61064;51.654;5.476;2023-07-13T04:21:10;101515.97;;;14.79;77.76
72921;BME280;61064;51.654;5.476;2023-07-13T04:23:36;101515.09;;;14.82;77.77
72921;BME280;61064;51.654;5.476;2023-07-13T04:26:02;101508.81;;;14.83;77.97
72921;BME280;61064;51.654;5.476;2023-07-13T04:28:27;101511.50;;;14.83;78.03
72921;BME280;61064;51.654;5.476;2023-07-13T04:30:53;101522.22;;;14.86;78.18
72921;BME280;61064;51.654;5.476;2023-07-13T04:33:19;101516.88;;;14.81;78.26
72921;BME280;61064;51.654;5.476;2023-07-13T04:35:48;101524.88;;;14.83;78.26
72921;BME280;61064;51.654;5.476;2023-07-13T04:38:14;101529.34;;;14.90;78.33
72921;BME280;61064;51.654;5.476;2023-07-13T04:40:44;101522.22;;;14.92;78.44
72921;BME280;61064;51.654;5.476;2023-07-13T04:43:09;101522.19;;;14.93;78.59
72921;BME280;61064;51.654;5.476;2023-07-13T04:45:35;101532.03;;;14.96;78.53
72921;BME280;61064;51.654;5.476;2023-07-13T04:48:00;101532.03;;;15.01;78.64
72921;BME280;61064;51.654;5.476;2023-07-13T04:50:26;101527.56;;;15.04;78.63
72921;BME280;61064;51.654;5.476;2023-07-13T04:52:51;101538.25;;;15.10;78.96
72921;BME280;61064;51.654;5.476;2023-07-13T04:55:18;101531.13;;;15.15;78.82
72921;BME280;61064;51.654;5.476;2023-07-13T04:57:44;101534.69;;;15.20;78.80
72921;BME280;61064;51.654;5.476;2023-07-13T05:00:09;101532.00;;;15.25;79.01
72921;BME280;61064;51.654;5.476;2023-07-13T05:02:37;101545.38;;;15.34;79.07
72921;BME280;61064;51.654;5.476;2023-07-13T05:05:03;101540.91;;;15.33;79.09
72921;BME280;61064;51.654;5.476;2023-07-13T05:07:29;101544.47;;;15.41;79.22
72921;BME280;61064;51.654;5.476;2023-07-13T05:09:54;101549.81;;;15.50;79.18
72921;BME280;61064;51.654;5.476;2023-07-13T05:12:20;101548.06;;;15.54;79.19
72921;BME280;61064;51.654;5.476;2023-07-13T05:14:45;101539.13;;;15.53;79.33
72921;BME280;61064;51.654;5.476;2023-07-13T05:17:11;101548.91;;;15.68;79.25
72921;BME280;61064;51.654;5.476;2023-07-13T05:19:36;101538.16;;;15.72;79.22
72921;BME280;61064;51.654;5.476;2023-07-13T05:22:01;101539.94;;;15.76;79.16
72921;BME280;61064;51.654;5.476;2023-07-13T05:24:29;101547.94;;;15.86;79.40
72921;BME280;61064;51.654;5.476;2023-07-13T05:26:54;101546.16;;;15.88;79.39
72921;BME280;61064;51.654;5.476;2023-07-13T05:29:20;101555.97;;;15.98;79.46
72921;BME280;61064;51.654;5.476;2023-07-13T05:31:46;101553.28;;;15.95;79.37
72921;BME280;61064;51.654;5.476;2023-07-13T05:34:11;101564.84;;;16.06;79.37
72921;BME280;61064;51.654;5.476;2023-07-13T05:36:37;101555.00;;;16.09;79.28
72921;BME280;61064;51.654;5.476;2023-07-13T05:39:03;101563.00;;;16.17;79.43
72921;BME280;61064;51.654;5.476;2023-07-13T05:41:28;101564.75;;;16.22;79.48
72921;BME280;61064;51.654;5.476;2023-07-13T05:43:54;101566.56;;;16.27;79.33
72921;BME280;61064;51.654;5.476;2023-07-13T05:46:19;101561.13;;;16.36;79.43
72921;BME280;61064;51.654;5.476;2023-07-13T05:48:44;101566.47;;;16.42;79.23
72921;BME280;61064;51.654;5.476;2023-07-13T05:51:10;101561.06;;;16.45;79.44
72921;BME280;61064;51.654;5.476;2023-07-13T05:53:35;101561.03;;;16.51;79.27
72921;BME280;61064;51.654;5.476;2023-07-13T05:56:04;101561.03;;;16.54;79.33
72921;BME280;61064;51.654;5.476;2023-07-13T05:58:29;101569.03;;;16.58;79.38
72921;BME280;61064;51.654;5.476;2023-07-13T06:01:06;101580.66;;;16.68;79.41
72921;BME280;61064;51.654;5.476;2023-07-13T06:03:32;101576.16;;;16.69;79.33
72921;BME280;61064;51.654;5.476;2023-07-13T06:05:58;101582.41;;;16.77;79.42
72921;BME280;61064;51.654;5.476;2023-07-13T06:08:25;101587.69;;;16.84;79.42
72921;BME280;61064;51.654;5.476;2023-07-13T06:10:51;101581.41;;;16.87;79.38
72921;BME280;61064;51.654;5.476;2023-07-13T06:13:16;101592.09;;;16.96;79.53
72921;BME280;61064;51.654;5.476;2023-07-13T06:15:42;101585.78;;;17.00;79.29
72921;BME280;61064;51.654;5.476;2023-07-13T06:18:07;101585.72;;;17.08;79.16
72921;BME280;61064;51.654;5.476;2023-07-13T06:20:34;101591.94;;;17.14;79.11
72921;BME280;61064;51.654;5.476;2023-07-13T06:23:00;101581.19;;;17.16;79.11
72921;BME280;61064;51.654;5.476;2023-07-13T06:25:26;101597.22;;;17.23;79.06
72921;BME280;61064;51.654;5.476;2023-07-13T06:27:52;101591.81;;;17.28;78.92
72921;BME280;61064;51.654;5.476;2023-07-13T06:30:17;101592.69;;;17.30;78.94
72921;BME280;61064;51.654;5.476;2023-07-13T06:32:43;101603.41;;;17.36;78.84
72921;BME280;61064;51.654;5.476;2023-07-13T06:35:09;101602.44;;;17.40;78.87
72921;BME280;61064;51.654;5.476;2023-07-13T06:37:37;101596.22;;;17.38;78.84
72921;BME280;61064;51.654;5.476;2023-07-13T06:40:03;101606.88;;;17.49;78.77
72921;BME280;61064;51.654;5.476;2023-07-13T06:42:29;101598.75;;;17.53;78.69
72921;BME280;61064;51.654;5.476;2023-07-13T06:44:54;101598.69;;;17.56;78.73
72921;BME280;61064;51.654;5.476;2023-07-13T06:47:19;101604.84;;;17.73;78.83
72921;BME280;61064;51.654;5.476;2023-07-13T06:49:45;101606.50;;;17.85;78.39
72921;BME280;61064;51.654;5.476;2023-07-13T06:52:10;101600.16;;;17.92;78.11
72921;BME280;61064;51.654;5.476;2023-07-13T06:54:35;101613.53;;;18.00;77.91
72921;BME280;61064;51.654;5.476;2023-07-13T06:57:01;101606.31;;;18.02;77.86
72921;BME280;61064;51.654;5.476;2023-07-13T06:59:26;101619.75;;;18.03;77.48
72921;BME280;61064;51.654;5.476;2023-07-13T07:01:52;101606.31;;;18.02;77.70
72921;BME280;61064;51.654;5.476;2023-07-13T07:04:17;101617.94;;;18.05;77.60
72921;BME280;61064;51.654;5.476;2023-07-13T07:06:42;101623.28;;;18.08;77.56
72921;BME280;61064;51.654;5.476;2023-07-13T07:09:10;101618.81;;;18.06;77.57
72921;BME280;61064;51.654;5.476;2023-07-13T07:11:35;101623.34;;;18.05;77.78
72921;BME280;61064;51.654;5.476;2023-07-13T07:14:00;101627.78;;;18.09;77.88
72921;BME280;61064;51.654;5.476;2023-07-13T07:16:26;101623.22;;;18.11;77.77
72921;BME280;61064;51.654;5.476;2023-07-13T07:18:51;101628.53;;;18.19;77.47
72921;BME280;61064;51.654;5.476;2023-07-13T07:21:17;101627.63;;;18.21;77.56
72921;BME280;61064;51.654;5.476;2023-07-13T07:23:43;101615.06;;;18.22;77.52
72921;BME280;61064;51.654;5.476;2023-07-13T07:26:09;101620.34;;;18.28;77.46
72921;BME280;61064;51.654;5.476;2023-07-13T07:28:35;101630.03;;;18.43;77.40
72921;BME280;61064;51.654;5.476;2023-07-13T07:31:01;101627.28;;;18.47;76.87
72921;BME280;61064;51.654;5.476;2023-07-13T07:33:26;101637.97;;;18.53;76.85
72921;BME280;61064;51.654;5.476;2023-07-13T07:35:53;101632.59;;;18.52;76.66
72921;BME280;61064;51.654;5.476;2023-07-13T07:38:19;101645.19;;;18.54;76.55
72921;BME280;61064;51.654;5.476;2023-07-13T07:40:44;101625.41;;;18.52;76.59
72921;BME280;61064;51.654;5.476;2023-07-13T07:43:11;101635.25;;;18.58;76.46
72921;BME280;61064;51.654;5.476;2023-07-13T07:45:39;101634.41;;;18.54;76.37
72921;BME280;61064;51.654;5.476;2023-07-13T07:48:05;101627.22;;;18.55;76.16
72921;BME280;61064;51.654;5.476;2023-07-13T07:50:32;101638.69;;;18.69;76.57
72921;BME280;61064;51.654;5.476;2023-07-13T07:52:57;101628.63;;;18.80;76.13
72921;BME280;61064;51.654;5.476;2023-07-13T07:55:24;101627.56;;;18.92;75.95
72921;BME280;61064;51.654;5.476;2023-07-13T07:57:52;101629.97;;;19.08;75.51
72921;BME280;61064;51.654;5.476;2023-07-13T08:00:17;101630.63;;;19.24;75.27
72921;BME280;61064;51.654;5.476;2023-07-13T08:02:44;101627.56;;;19.45;74.88
72921;BME280;61064;51.654;5.476;2023-07-13T08:05:09;101635.31;;;19.67;74.29
72921;BME280;61064;51.654;5.476;2023-07-13T08:07:36;101636.00;;;19.78;73.54
72921;BME280;61064;51.654;5.476;2023-07-13T08:10:03;101632.41;;;19.77;73.20
72921;BME280;61064;51.654;5.476;2023-07-13T08:12:29;101635.13;;;19.76;73.16
72921;BME280;61064;51.654;5.476;2023-07-13T08:14:55;101643.94;;;19.87;72.89
72921;BME280;61064;51.654;5.476;2023-07-13T08:17:24;101640.09;;;19.99;72.54
72921;BME280;61064;51.654;5.476;2023-07-13T08:19:50;101648.88;;;20.10;72.19
72921;BME280;61064;51.654;5.476;2023-07-13T08:22:16;101642.34;;;20.21;71.99
72921;BME280;61064;51.654;5.476;2023-07-13T08:24:41;101642.16;;;20.29;71.55
72921;BME280;61064;51.654;5.476;2023-07-13T08:27:13;101642.91;;;20.39;70.75
72921;BME280;61064;51.654;5.476;2023-07-13T08:29:38;101642.59;;;20.52;70.15
72921;BME280;61064;51.654;5.476;2023-07-13T08:32:05;101635.28;;;20.57;69.59
72921;BME280;61064;51.654;5.476;2023-07-13T08:34:34;101621.66;;;20.62;69.41
72921;BME280;61064;51.654;5.476;2023-07-13T08:37:00;101626.75;;;20.75;69.14
72921;BME280;61064;51.654;5.476;2023-07-13T08:39:25;101627.50;;;20.82;69.12
72921;BME280;61064;51.654;5.476;2023-07-13T08:41:57;101618.28;;;20.91;68.43
72921;BME280;61064;51.654;5.476;2023-07-13T08:44:35;101619.75;;;21.04;67.81
72921;BME280;61064;51.654;5.476;2023-07-13T08:47:06;101625.94;;;21.10;67.40
72921;BME280;61064;51.654;5.476;2023-07-13T08:49:33;101633.00;;;21.18;67.02
72921;BME280;61064;51.654;5.476;2023-07-13T08:52:08;101627.34;;;21.27;66.34
72921;BME280;61064;51.654;5.476;2023-07-13T08:54:41;101627.16;;;21.34;66.01
72921;BME280;61064;51.654;5.476;2023-07-13T08:57:14;101625.28;;;21.36;65.19
72921;BME280;61064;51.654;5.476;2023-07-13T08:59:41;101626.94;;;21.42;65.48
72921;BME280;61064;51.654;5.476;2023-07-13T09:04:54;101624.88;;;21.51;64.65
72921;BME280;61064;51.654;5.476;2023-07-13T09:10:19;101625.59;;;21.60;64.76
72921;BME280;61064;51.654;5.476;2023-07-13T09:15:47;101623.31;;;21.77;64.21
72921;BME280;61064;51.654;5.476;2023-07-13T09:18:28;101612.31;;;21.83;64.17
72921;BME280;61064;51.654;5.476;2023-07-13T09:21:03;101614.72;;;21.93;63.70
72921;BME280;61064;51.654;5.476;2023-07-13T09:23:31;101623.53;;;22.02;63.57
72921;BME280;61064;51.654;5.476;2023-07-13T09:26:19;101612.63;;;22.05;63.58
72921;BME280;61064;51.654;5.476;2023-07-13T09:28:48;101617.72;;;22.15;63.06
72921;BME280;61064;51.654;5.476;2023-07-13T09:31:16;101615.03;;;22.15;62.77
72921;BME280;61064;51.654;5.476;2023-07-13T09:33:43;101617.63;;;22.18;62.74
72921;BME280;61064;51.654;5.476;2023-07-13T09:44:18;101621.94;;;22.25;62.21
72921;BME280;61064;51.654;5.476;2023-07-13T09:46:53;101619.72;;;22.39;61.78
72921;BME280;61064;51.654;5.476;2023-07-13T09:49:24;101617.59;;;22.51;61.49
72921;BME280;61064;51.654;5.476;2023-07-13T09:51:58;101619.16;;;22.58;61.09
72921;BME280;61064;51.654;5.476;2023-07-13T09:54:25;101617.00;;;22.69;60.75
72921;BME280;61064;51.654;5.476;2023-07-13T09:56:58;101615.06;;;22.74;61.18
72921;BME280;61064;51.654;5.476;2023-07-13T09:59:28;101623.75;;;22.85;60.54
72921;BME280;61064;51.654;5.476;2023-07-13T10:01:54;101630.75;;;22.92;60.48
72921;BME280;61064;51.654;5.476;2023-07-13T10:04:26;101626.13;;;22.96;60.08
72921;BME280;61064;51.654;5.476;2023-07-13T10:07:05;101623.16;;;23.03;60.05
72921;BME280;61064;51.654;5.476;2023-07-13T10:09:31;101622.72;;;23.17;59.72
72921;BME280;61064;51.654;5.476;2023-07-13T10:11:57;101621.53;;;23.24;59.39
72921;BME280;61064;51.654;5.476;2023-07-13T10:14:24;101626.69;;;23.33;59.03
72921;BME280;61064;51.654;5.476;2023-07-13T10:16:58;101628.75;;;23.25;58.05
72921;BME280;61064;51.654;5.476;2023-07-13T10:19:29;101641.44;;;23.25;58.87
72921;BME280;61064;51.654;5.476;2023-07-13T10:22:01;101619.19;;;23.13;58.44
72921;BME280;61064;51.654;5.476;2023-07-13T10:24:31;101633.31;;;22.97;59.00
72921;BME280;61064;51.654;5.476;2023-07-13T10:29:43;101642.44;;;22.65;59.71
72921;BME280;61064;51.654;5.476;2023-07-13T10:32:12;101649.66;;;22.66;60.45
72921;BME280;61064;51.654;5.476;2023-07-13T10:34:40;101643.16;;;22.73;60.06
72921;BME280;61064;51.654;5.476;2023-07-13T10:37:16;101633.09;;;22.75;60.27
72921;BME280;61064;51.654;5.476;2023-07-13T10:39:44;101639.63;;;22.97;60.23
72921;BME280;61064;51.654;5.476;2023-07-13T10:42:21;101637.47;;;23.08;59.48
72921;BME280;61064;51.654;5.476;2023-07-13T10:44:49;101622.38;;;23.00;59.34
72921;BME280;61064;51.654;5.476;2023-07-13T10:47:16;101607.94;;;22.98;59.21
72921;BME280;61064;51.654;5.476;2023-07-13T10:49:46;101648.31;;;23.08;58.68
72921;BME280;61064;51.654;5.476;2023-07-13T10:52:48;101647.00;;;22.94;58.67
72921;BME280;61064;51.654;5.476;2023-07-13T10:55:40;101654.09;;;22.98;58.58
72921;BME280;61064;51.654;5.476;2023-07-13T10:58:37;101661.28;;;23.00;58.81
72921;BME280;61064;51.654;5.476;2023-07-13T11:03:33;101658.53;;;23.28;57.61
72921;BME280;61064;51.654;5.476;2023-07-13T11:11:45;101656.59;;;23.59;56.51
72921;BME280;61064;51.654;5.476;2023-07-13T11:14:41;101639.72;;;23.50;57.02
72921;BME280;61064;51.654;5.476;2023-07-13T11:20:20;101671.31;;;23.52;57.61
72921;BME280;61064;51.654;5.476;2023-07-13T11:23:08;101678.09;;;23.39;57.94
72921;BME280;61064;51.654;5.476;2023-07-13T11:25:41;101663.28;;;23.21;58.73
72921;BME280;61064;51.654;5.476;2023-07-13T11:28:15;101680.69;;;23.14;59.37
72921;BME280;61064;51.654;5.476;2023-07-13T11:31:01;101687.00;;;22.87;59.67
72921;BME280;61064;51.654;5.476;2023-07-13T11:33:45;101678.63;;;22.64;60.95
72921;BME280;61064;51.654;5.476;2023-07-13T11:36:16;101694.50;;;22.48;61.41
72921;BME280;61064;51.654;5.476;2023-07-13T11:38:56;101688.63;;;22.32;61.39
72921;BME280;61064;51.654;5.476;2023-07-13T11:41:27;101680.03;;;22.17;61.76
72921;BME280;61064;51.654;5.476;2023-07-13T11:43:56;101673.69;;;22.18;62.14
72921;BME280;61064;51.654;5.476;2023-07-13T11:46:28;101676.91;;;22.30;61.70
72921;BME280;61064;51.654;5.476;2023-07-13T11:48:55;101678.31;;;22.45;60.72
72921;BME280;61064;51.654;5.476;2023-07-13T11:51:26;101668.78;;;22.61;60.29
72921;BME280;61064;51.654;5.476;2023-07-13T11:53:54;101670.13;;;22.77;59.12
72921;BME280;61064;51.654;5.476;2023-07-13T11:56:23;101660.78;;;22.86;58.66
72921;BME280;61064;51.654;5.476;2023-07-13T11:58:55;101667.50;;;23.02;58.25
72921;BME280;61064;51.654;5.476;2023-07-13T12:01:26;101667.81;;;23.21;57.96
72921;BME280;61064;51.654;5.476;2023-07-13T12:04:04;101656.03;;;23.50;57.30
72921;BME280;61064;51.654;5.476;2023-07-13T12:06:34;101658.16;;;23.67;56.52
72921;BME280;61064;51.654;5.476;2023-07-13T12:09:12;101659.59;;;23.77;56.24
72921;BME280;61064;51.654;5.476;2023-07-13T12:11:40;101652.31;;;23.79;55.73
72921;BME280;61064;51.654;5.476;2023-07-13T12:14:14;101669.84;;;23.95;56.24
72921;BME280;61064;51.654;5.476;2023-07-13T12:16:41;101656.44;;;24.14;55.69
72921;BME280;61064;51.654;5.476;2023-07-13T12:19:20;101663.88;;;24.35;55.61
72921;BME280;61064;51.654;5.476;2023-07-13T12:21:47;101651.22;;;24.57;54.92
72921;BME280;61064;51.654;5.476;2023-07-13T12:24:17;101653.09;;;24.78;53.62
72921;BME280;61064;51.654;5.476;2023-07-13T12:26:44;101653.34;;;24.96;52.73
72921;BME280;61064;51.654;5.476;2023-07-13T12:29:16;101641.81;;;25.11;51.53
72921;BME280;61064;51.654;5.476;2023-07-13T12:31:44;101641.63;;;25.15;51.41
72921;BME280;61064;51.654;5.476;2023-07-13T12:34:14;101644.56;;;25.31;50.51
72921;BME280;61064;51.654;5.476;2023-07-13T12:36:51;101651.41;;;25.41;49.99
72921;BME280;61064;51.654;5.476;2023-07-13T12:39:27;101653.06;;;25.45;49.40
72921;BME280;61064;51.654;5.476;2023-07-13T12:42:31;101651.28;;;25.44;49.51
72921;BME280;61064;51.654;5.476;2023-07-13T12:44:56;101654.28;;;25.38;48.80
72921;BME280;61064;51.654;5.476;2023-07-13T12:47:24;101655.69;;;25.26;48.42
72921;BME280;61064;51.654;5.476;2023-07-13T12:49:59;101658.44;;;25.03;48.55
72921;BME280;61064;51.654;5.476;2023-07-13T12:52:33;101662.31;;;24.98;48.94
72921;BME280;61064;51.654;5.476;2023-07-13T12:55:17;101659.41;;;25.02;48.59
72921;BME280;61064;51.654;5.476;2023-07-13T12:58:03;101648.34;;;25.07;48.09
72921;BME280;61064;51.654;5.476;2023-07-13T13:00:32;101649.22;;;25.07;47.94
72921;BME280;61064;51.654;5.476;2023-07-13T13:03:03;101653.66;;;25.10;48.08
72921;BME280;61064;51.654;5.476;2023-07-13T13:05:30;101654.09;;;25.21;47.30
72921;BME280;61064;51.654;5.476;2023-07-13T13:07:55;101651.94;;;25.07;46.99
72921;BME280;61064;51.654;5.476;2023-07-13T13:10:21;101652.13;;;25.03;47.10
72921;BME280;61064;51.654;5.476;2023-07-13T13:12:47;101657.81;;;24.97;47.39
72921;BME280;61064;51.654;5.476;2023-07-13T13:15:13;101659.19;;;24.85;47.23
72921;BME280;61064;51.654;5.476;2023-07-13T13:17:38;101655.09;;;24.73;47.51
72921;BME280;61064;51.654;5.476;2023-07-13T13:20:14;101660.97;;;24.63;47.91
72921;BME280;61064;51.654;5.476;2023-07-13T13:22:43;101661.22;;;24.57;47.42
72921;BME280;61064;51.654;5.476;2023-07-13T13:25:12;101669.88;;;24.43;47.16
72921;BME280;61064;51.654;5.476;2023-07-13T13:27:40;101672.16;;;24.30;47.79